Time;durP1;ratioP1;P1;durP2;ratioP2;P2;SDS_P1;SDS_P2;PMS_P1;PMS_P2;Temp;Humidity;BMP_temperature;BMP_pressure;BME280_temperature;BME280_humidity;BME280_pressure;Samples;Min_cycle;Max_cycle;Signal;HPM_P1;HPM_P2
2023/04/20 00:00:32;;;;;;;;;;;;;;;18.65;71.77;100404.69;7398735;19;1249;-49
2023/04/20 00:03:02;;;;;;;;;;;;;;;18.57;71.98;100392.00;7398938;19;1162;-50
2023/04/20 00:05:31;;;;;;;;;;;;;;;18.58;72.14;100388.38;7399055;19;1388;-49
2023/04/20 00:08:00;;;;;;;;;;;;;;;18.53;72.07;100390.59;7398310;19;1216;-50
2023/04/20 00:10:28;;;;;;;;;;;;;;;18.56;72.01;100390.34;7398730;19;1201;-50
2023/04/20 00:12:59;;;;;;;;;;;;;;;18.57;71.79;100380.47;7398371;19;1859;-50
2023/04/20 00:15:28;;;;;;;;;;;;;;;18.65;71.86;100375.25;7398900;19;1265;-49
2023/04/20 00:17:57;;;;;;;;;;;;;;;18.64;71.69;100370.84;7398830;19;1245;-50
2023/04/20 00:20:25;;;;;;;;;;;;;;;18.71;71.52;100371.97;7398351;19;1356;-49
2023/04/20 00:22:54;;;;;;;;;;;;;;;18.49;72.10;100370.47;7398787;19;1262;-49
2023/04/20 00:25:22;;;;;;;;;;;;;;;18.52;72.33;100356.78;7397581;19;1202;-49
2023/04/20 00:27:51;;;;;;;;;;;;;;;18.48;72.29;100366.94;7396748;19;1241;-50
2023/04/20 00:30:22;;;;;;;;;;;;;;;18.53;72.08;100369.19;7397695;19;1238;-50
2023/04/20 00:32:50;;;;;;;;;;;;;;;18.56;72.15;100355.53;7397387;19;1265;-50
2023/04/20 00:35:18;;;;;;;;;;;;;;;18.61;71.83;100361.28;7395828;19;1856;-50
2023/04/20 00:37:46;;;;;;;;;;;;;;;18.53;71.92;100361.16;7397365;19;1159;-49
2023/04/20 00:40:15;;;;;;;;;;;;;;;18.61;72.01;100365.81;7397395;19;1249;-50
2023/04/20 00:42:43;;;;;;;;;;;;;;;18.62;71.66;100360.31;7396493;19;1396;-50
2023/04/20 00:45:12;;;;;;;;;;;;;;;18.49;72.31;100359.75;7396618;19;1371;-49
2023/04/20 00:47:42;;;;;;;;;;;;;;;18.54;72.03;100349.44;7397223;19;1365;-49
2023/04/20 00:50:12;;;;;;;;;;;;;;;18.54;72.22;100349.44;7396085;19;1477;-50
2023/04/20 00:52:41;;;;;;;;;;;;;;;18.51;72.14;100379.19;7397329;19;1292;-50
2023/04/20 00:55:09;;;;;;;;;;;;;;;18.61;73.33;100355.09;7395370;19;1851;-49
2023/04/20 00:57:38;;;;;;;;;;;;;;;18.70;72.92;100362.25;7396891;19;1388;-50
2023/04/20 01:00:07;;;;;;;;;;;;;;;18.81;73.09;100382.72;7398088;19;1281;-50
2023/04/20 01:02:35;;;;;;;;;;;;;;;18.78;72.92;100366.88;7397132;19;1262;-50
2023/04/20 01:05:07;;;;;;;;;;;;;;;18.67;72.89;100368.75;7397212;19;1273;-50
2023/04/20 01:07:35;;;;;;;;;;;;;;;18.80;72.44;100364.94;7397514;19;1284;-50
2023/04/20 01:10:03;;;;;;;;;;;;;;;18.62;73.14;100373.69;7397070;19;1352;-50
2023/04/20 01:12:32;;;;;;;;;;;;;;;18.57;73.04;100365.22;7396876;19;1250;-49
2023/04/20 01:15:00;;;;;;;;;;;;;;;18.71;72.63;100363.13;7395385;19;1855;-48
2023/04/20 01:17:28;;;;;;;;;;;;;;;18.73;72.25;100363.81;7396665;19;1175;-50
2023/04/20 01:19:58;;;;;;;;;;;;;;;18.50;72.96;100358.75;7397256;19;1221;-50
2023/04/20 01:22:29;;;;;;;;;;;;;;;18.54;72.66;100352.13;7396660;19;1246;-49
2023/04/20 01:24:58;;;;;;;;;;;;;;;18.52;73.04;100348.75;7396430;19;1364;-49
2023/04/20 01:27:26;;;;;;;;;;;;;;;18.57;72.77;100359.88;7395369;19;1225;-49
2023/04/20 01:29:54;;;;;;;;;;;;;;;18.60;72.58;100348.91;7396717;19;1103;-49
2023/04/20 01:32:23;;;;;;;;;;;;;;;18.64;72.45;100350.28;7396642;19;1314;-49
2023/04/20 01:34:51;;;;;;;;;;;;;;;18.51;72.93;100349.75;7395732;19;1869;-50
2023/04/20 01:37:19;;;;;;;;;;;;;;;18.41;73.25;100341.72;7399134;19;1201;-49
2023/04/20 01:39:50;;;;;;;;;;;;;;;18.51;72.68;100340.88;7403667;19;1273;-48
2023/04/20 01:42:18;;;;;;;;;;;;;;;18.48;72.95;100329.47;7403852;19;1245;-50
2023/04/20 01:44:47;;;;;;;;;;;;;;;18.45;73.10;100328.91;7403546;19;1854;-50
2023/04/20 01:47:15;;;;;;;;;;;;;;;19.23;70.81;100337.59;7403501;19;1136;-49
2023/04/20 01:49:43;;;;;;;;;;;;;;;19.74;69.17;100315.78;7403829;19;1297;-49
2023/04/20 01:52:12;;;;;;;;;;;;;;;20.16;68.00;100326.75;7404347;19;1277;-49
2023/04/20 01:54:40;;;;;;;;;;;;;;;20.17;68.25;100322.22;7400997;19;1846;-49
2023/04/20 01:57:11;;;;;;;;;;;;;;;20.19;68.15;100315.72;7404216;19;1171;-49
2023/04/20 01:59:39;;;;;;;;;;;;;;;19.71;67.96;100223.00;7403563;19;1222;-49
2023/04/20 02:02:08;;;;;;;;;;;;;;;20.37;67.75;100322.91;7403155;19;1187;-50
2023/04/20 02:04:36;;;;;;;;;;;;;;;20.25;67.96;100307.06;7402936;19;1265;-49
2023/04/20 02:07:04;;;;;;;;;;;;;;;20.21;68.03;100313.72;7403540;19;1261;-50
2023/04/20 02:09:32;;;;;;;;;;;;;;;20.60;67.10;100321.44;7401992;19;1368;-49
2023/04/20 02:12:01;;;;;;;;;;;;;;;20.51;67.28;100327.72;7403543;19;1178;-48
2023/04/20 02:14:31;;;;;;;;;;;;;;;20.37;67.72;100328.28;7401708;19;1857;-49
2023/04/20 02:17:00;;;;;;;;;;;;;;;20.32;68.00;100333.28;7402316;19;1170;-49
2023/04/20 02:19:28;;;;;;;;;;;;;;;20.39;67.75;100332.50;7401321;19;1288;-48
2023/04/20 02:21:56;;;;;;;;;;;;;;;20.45;67.74;100325.66;7402439;19;1981;-48
2023/04/20 02:24:24;;;;;;;;;;;;;;;20.57;67.39;100329.81;7402054;19;1293;-48
2023/04/20 02:26:53;;;;;;;;;;;;;;;20.58;67.02;100326.09;7401020;19;1318;-49
2023/04/20 02:29:21;;;;;;;;;;;;;;;20.59;67.31;100332.34;7402172;19;1170;-48
2023/04/20 02:31:52;;;;;;;;;;;;;;;20.48;67.52;100328.03;7401135;19;1329;-48
2023/04/20 02:34:20;;;;;;;;;;;;;;;20.44;67.76;100330.19;7399896;19;2027;-48
2023/04/20 02:36:49;;;;;;;;;;;;;;;20.45;67.57;100339.06;7399307;19;1207;-48
2023/04/20 02:39:17;;;;;;;;;;;;;;;20.43;67.75;100341.06;7401147;19;1398;-48
2023/04/20 02:41:45;;;;;;;;;;;;;;;20.74;66.52;100327.25;7399816;19;1221;-48
2023/04/20 02:44:14;;;;;;;;;;;;;;;20.66;67.11;100345.00;7401983;19;1170;-48
2023/04/20 02:46:42;;;;;;;;;;;;;;;20.54;67.26;100330.09;7401722;19;1206;-48
2023/04/20 02:49:14;;;;;;;;;;;;;;;20.60;67.25;100329.50;7401692;19;1233;-48
2023/04/20 02:51:42;;;;;;;;;;;;;;;20.61;67.28;100333.88;7401356;19;1317;-48
2023/04/20 02:54:11;;;;;;;;;;;;;;;20.74;66.98;100335.31;7400529;19;1854;-48
2023/04/20 02:56:39;;;;;;;;;;;;;;;20.79;66.72;100339.22;7401893;19;1218;-48
2023/04/20 02:59:07;;;;;;;;;;;;;;;20.76;66.85;100336.84;7401249;19;1190;-48
2023/04/20 03:01:36;;;;;;;;;;;;;;;20.68;67.09;100323.34;7400969;19;1237;-49
2023/04/20 03:04:04;;;;;;;;;;;;;;;20.62;67.25;100335.56;7399114;19;1373;-49
2023/04/20 03:06:35;;;;;;;;;;;;;;;20.61;67.15;100341.94;7400498;19;1313;-48
2023/04/20 03:09:03;;;;;;;;;;;;;;;20.68;67.28;100358.28;7401149;19;1360;-48
2023/04/20 03:11:32;;;;;;;;;;;;;;;20.65;67.27;100355.88;7401218;19;1257;-48
2023/04/20 03:14:00;;;;;;;;;;;;;;;20.66;67.27;100354.91;7400471;19;1842;-48
2023/04/20 03:16:28;;;;;;;;;;;;;;;20.61;67.21;100358.06;7400779;19;1281;-48
2023/04/20 03:18:56;;;;;;;;;;;;;;;20.63;67.34;100355.19;7400404;19;1151;-49
2023/04/20 03:21:25;;;;;;;;;;;;;;;20.63;67.19;100355.19;7400129;19;1364;-48
2023/04/20 03:23:56;;;;;;;;;;;;;;;20.70;67.27;100366.19;7400647;19;1342;-48
2023/04/20 03:26:24;;;;;;;;;;;;;;;20.61;67.31;100355.38;7399322;19;1316;-47
2023/04/20 03:28:52;;;;;;;;;;;;;;;20.63;67.32;100356.06;7400314;19;1693;-49
2023/04/20 03:31:21;;;;;;;;;;;;;;;20.67;67.24;100367.31;7400970;19;1170;-48
2023/04/20 03:33:49;;;;;;;;;;;;;;;20.62;67.40;100365.13;7398951;19;1136;-49
2023/04/20 03:36:17;;;;;;;;;;;;;;;20.68;67.14;100368.19;7397237;19;1906;-48
2023/04/20 03:38:46;;;;;;;;;;;;;;;20.64;67.35;100362.28;7398353;19;1839;-49
2023/04/20 03:41:17;;;;;;;;;;;;;;;20.69;67.04;100369.84;7399326;19;1194;-48
2023/04/20 03:43:45;;;;;;;;;;;;;;;20.70;67.20;100366.19;7398990;19;1300;-48
2023/04/20 03:46:13;;;;;;;;;;;;;;;20.67;67.02;100364.63;7399790;19;1540;-48
2023/04/20 03:48:41;;;;;;;;;;;;;;;20.68;66.92;100350.22;7399743;19;1132;-48
2023/04/20 03:51:10;;;;;;;;;;;;;;;20.72;66.91;100354.28;7399207;19;1288;-49
2023/04/20 03:53:38;;;;;;;;;;;;;;;20.71;67.06;100357.09;7400239;19;1252;-48
2023/04/20 03:56:06;;;;;;;;;;;;;;;20.78;66.83;100369.75;7398046;19;1840;-48
2023/04/20 03:58:38;;;;;;;;;;;;;;;20.74;66.87;100363.03;7399727;19;1198;-48
2023/04/20 04:01:08;;;;;;;;;;;;;;;20.59;67.36;100370.81;7398061;19;1579;-48
2023/04/20 04:03:37;;;;;;;;;;;;;;;20.24;68.47;100367.09;7399652;19;1221;-48
2023/04/20 04:06:06;;;;;;;;;;;;;;;20.12;68.77;100352.22;7398612;19;1384;-49
2023/04/20 04:08:34;;;;;;;;;;;;;;;19.88;69.44;100373.47;7397677;19;1181;-48
2023/04/20 04:11:02;;;;;;;;;;;;;;;19.62;70.22;100366.09;7398518;19;1495;-49
2023/04/20 04:13:31;;;;;;;;;;;;;;;19.46;70.55;100364.88;7396687;19;1265;-49
2023/04/20 04:16:01;;;;;;;;;;;;;;;19.45;70.54;100370.38;7397041;19;1849;-48
2023/04/20 04:18:31;;;;;;;;;;;;;;;19.61;70.26;100351.81;7395168;19;1163;-49
2023/04/20 04:20:59;;;;;;;;;;;;;;;19.57;70.13;100352.25;7398101;19;1284;-49
2023/04/20 04:23:28;;;;;;;;;;;;;;;19.56;69.86;100367.53;7398421;19;1203;-48
2023/04/20 04:25:57;;;;;;;;;;;;;;;19.49;70.44;100369.09;7397454;19;1282;-49
2023/04/20 04:28:25;;;;;;;;;;;;;;;19.71;69.86;100375.94;7398906;19;1388;-48
2023/04/20 04:30:54;;;;;;;;;;;;;;;19.94;69.28;100381.75;7398510;19;1178;-48
2023/04/20 04:33:25;;;;;;;;;;;;;;;19.80;69.38;100391.13;7397984;19;1138;-49
2023/04/20 04:35:54;;;;;;;;;;;;;;;19.74;69.57;100380.19;7396845;19;1860;-49
2023/04/20 04:38:22;;;;;;;;;;;;;;;19.89;69.02;100375.97;7397843;19;1256;-49
2023/04/20 04:40:51;;;;;;;;;;;;;;;19.92;68.92;100382.88;7398325;19;1174;-48
2023/04/20 04:43:19;;;;;;;;;;;;;;;19.54;69.94;100392.81;7396839;19;1219;-48
2023/04/20 04:45:48;;;;;;;;;;;;;;;19.61;70.91;100396.56;7391755;19;1269;-49
2023/04/20 04:48:17;;;;;;;;;;;;;;;20.04;69.77;100387.03;7394040;19;1321;-48
2023/04/20 04:50:48;;;;;;;;;;;;;;;19.80;70.53;100395.66;7394061;19;1507;-49
2023/04/20 04:53:17;;;;;;;;;;;;;;;19.56;70.88;100399.69;7396344;19;1317;-49
2023/04/20 04:55:45;;;;;;;;;;;;;;;19.44;71.36;100398.22;7392979;19;1847;-51
2023/04/20 04:58:13;;;;;;;;;;;;;;;19.45;71.22;100408.75;7393120;19;1266;-51
2023/04/20 05:00:41;;;;;;;;;;;;;;;19.42;71.54;100413.59;7392934;19;1684;-51
2023/04/20 05:03:10;;;;;;;;;;;;;;;19.36;68.48;100403.44;7389905;19;1297;-51
2023/04/20 05:05:38;;;;;;;;;;;;;;;19.64;69.36;100407.00;7390393;19;1361;-51
2023/04/20 05:08:10;;;;;;;;;;;;;;;19.78;68.59;100403.84;7391699;19;1618;-51
2023/04/20 05:10:38;;;;;;;;;;;;;;;19.50;68.83;100400.31;7391320;19;1341;-50
2023/04/20 05:13:06;;;;;;;;;;;;;;;19.32;66.41;100416.31;7397865;19;1400;-50
2023/04/20 05:15:35;;;;;;;;;;;;;;;19.26;66.56;100419.59;7398885;19;1862;-51
2023/04/20 05:18:03;;;;;;;;;;;;;;;19.13;67.50;100427.91;7400848;19;1238;-51
2023/04/20 05:20:31;;;;;;;;;;;;;;;19.08;67.93;100411.44;7401336;19;1392;-52
2023/04/20 05:23:00;;;;;;;;;;;;;;;19.30;66.97;100407.56;7396151;19;1479;-56
2023/04/20 05:25:31;;;;;;;;;;;;;;;19.49;65.50;100403.97;7397124;19;1653;-56
2023/04/20 05:27:59;;;;;;;;;;;;;;;19.34;66.38;100418.81;7395559;19;1471;-56
2023/04/20 05:30:28;;;;;;;;;;;;;;;19.35;64.92;100421.38;7398014;19;1515;-56
2023/04/20 05:32:56;;;;;;;;;;;;;;;19.26;64.28;100415.06;7399063;19;1167;-56
2023/04/20 05:35:24;;;;;;;;;;;;;;;19.25;66.15;100417.88;7397922;19;1861;-56
2023/04/20 05:37:52;;;;;;;;;;;;;;;19.38;65.35;100423.78;7398516;19;1420;-55
2023/04/20 05:40:21;;;;;;;;;;;;;;;19.52;64.89;100414.41;7396829;19;1503;-56
2023/04/20 05:42:52;;;;;;;;;;;;;;;19.60;64.88;100419.03;7399298;19;1368;-56
2023/04/20 05:45:20;;;;;;;;;;;;;;;19.54;64.46;100433.88;7402473;19;1590;-56
2023/04/20 05:47:54;;;;;;;;;;;;;;;19.45;65.19;100440.09;7401002;19;1285;-55
2023/04/20 05:50:22;;;;;;;;;;;;;;;19.50;65.17;100436.97;7400387;19;1435;-55
2023/04/20 05:52:50;;;;;;;;;;;;;;;19.58;65.09;100429.91;7402534;19;1307;-56
2023/04/20 05:55:19;;;;;;;;;;;;;;;19.54;65.52;100441.91;7400574;19;1879;-57
2023/04/20 05:57:47;;;;;;;;;;;;;;;19.52;65.60;100445.72;7400382;19;1189;-56
2023/04/20 06:00:19;;;;;;;;;;;;;;;19.49;65.84;100444.19;7401605;19;1480;-56
2023/04/20 06:02:47;;;;;;;;;;;;;;;19.53;65.43;100450.94;7401707;19;1095;-56
2023/04/20 06:05:16;;;;;;;;;;;;;;;19.45;65.58;100454.34;7400500;19;1558;-56
2023/04/20 06:07:44;;;;;;;;;;;;;;;19.33;65.02;100454.69;7401012;19;1574;-56
2023/04/20 06:10:12;;;;;;;;;;;;;;;19.18;65.04;100456.97;7400408;19;1166;-55
2023/04/20 06:12:41;;;;;;;;;;;;;;;19.36;63.79;100465.09;7399403;19;1585;-55
2023/04/20 06:15:10;;;;;;;;;;;;;;;19.66;62.82;100458.69;7400406;19;1865;-54
2023/04/20 06:17:41;;;;;;;;;;;;;;;19.62;63.05;100458.13;7396801;19;1196;-54
2023/04/20 06:20:10;;;;;;;;;;;;;;;19.53;63.91;100483.13;7397962;19;1465;-56
2023/04/20 06:22:38;;;;;;;;;;;;;;;19.52;64.22;100465.34;7399406;19;1380;-55
2023/04/20 06:25:07;;;;;;;;;;;;;;;19.48;64.80;100463.97;7400535;19;1554;-55
2023/04/20 06:27:35;;;;;;;;;;;;;;;19.51;64.75;100466.34;7397991;19;1206;-55
2023/04/20 06:30:04;;;;;;;;;;;;;;;19.49;65.18;100452.22;7399993;19;1476;-55
2023/04/20 06:32:32;;;;;;;;;;;;;;;19.56;65.08;100453.34;7401432;19;1280;-56
2023/04/20 06:35:03;;;;;;;;;;;;;;;19.53;65.79;100458.16;7399735;19;1849;-55
2023/04/20 06:37:31;;;;;;;;;;;;;;;19.47;65.99;100456.91;7398655;19;1507;-55
2023/04/20 06:40:00;;;;;;;;;;;;;;;19.43;66.11;100466.22;7398976;19;1475;-54
2023/04/20 06:42:28;;;;;;;;;;;;;;;19.38;66.32;100464.00;7399233;19;1436;-55
2023/04/20 06:44:56;;;;;;;;;;;;;;;19.36;68.33;100465.09;7399276;19;1320;-54
2023/04/20 06:47:30;;;;;;;;;;;;;;;19.38;69.61;100455.94;7398301;19;1479;-54
2023/04/20 06:49:58;;;;;;;;;;;;;;;19.41;69.55;100474.41;7396783;19;1412;-54
2023/04/20 06:52:29;;;;;;;;;;;;;;;19.31;69.24;100454.81;7396798;19;1547;-54
2023/04/20 06:54:59;;;;;;;;;;;;;;;19.22;69.70;100455.72;7396314;19;1584;-54
2023/04/20 06:57:27;;;;;;;;;;;;;;;19.27;69.24;100470.34;7394632;19;1856;-53
2023/04/20 06:59:57;;;;;;;;;;;;;;;19.51;68.78;100457.44;7397941;19;1397;-54
2023/04/20 07:02:26;;;;;;;;;;;;;;;19.65;68.26;100459.66;7398672;19;1253;-54
2023/04/20 07:04:54;;;;;;;;;;;;;;;19.53;68.50;100458.16;7397530;19;1558;-54
2023/04/20 07:07:22;;;;;;;;;;;;;;;19.43;69.18;100469.75;7397122;19;1468;-54
2023/04/20 07:09:53;;;;;;;;;;;;;;;19.25;69.50;100474.16;7396523;19;1483;-55
2023/04/20 07:12:21;;;;;;;;;;;;;;;19.28;67.70;100471.22;7398577;19;1433;-54
2023/04/20 07:14:50;;;;;;;;;;;;;;;19.37;66.88;100475.69;7396241;19;1468;-53
2023/04/20 07:17:18;;;;;;;;;;;;;;;19.51;67.15;100465.50;7396352;19;1850;-54
2023/04/20 07:19:46;;;;;;;;;;;;;;;19.60;67.02;100475.38;7397105;19;1155;-56
2023/04/20 07:22:15;;;;;;;;;;;;;;;19.51;67.26;100474.38;7397944;19;1459;-56
2023/04/20 07:24:43;;;;;;;;;;;;;;;19.33;68.11;100482.34;7394813;19;1364;-50
2023/04/20 07:27:14;;;;;;;;;;;;;;;19.16;68.58;100466.97;7395623;19;1338;-52
2023/04/20 07:29:42;;;;;;;;;;;;;;;19.12;68.64;100482.53;7395627;19;1437;-48
2023/04/20 07:32:11;;;;;;;;;;;;;;;19.08;68.42;100481.97;7393013;19;1437;-48
2023/04/20 07:34:39;;;;;;;;;;;;;;;19.00;67.57;100478.28;7393884;19;1373;-49
2023/04/20 07:37:07;;;;;;;;;;;;;;;18.85;68.61;100486.75;7393426;19;1874;-49
2023/04/20 07:39:35;;;;;;;;;;;;;;;19.00;65.33;100489.00;7394445;19;1405;-48
2023/04/20 07:42:04;;;;;;;;;;;;;;;19.08;66.03;100481.97;7395735;19;1374;-49
2023/04/20 07:44:35;;;;;;;;;;;;;;;19.00;67.21;100491.69;7393106;19;1515;-49
2023/04/20 07:47:04;;;;;;;;;;;;;;;19.28;66.39;100490.81;7392719;19;1600;-50
2023/04/20 07:49:33;;;;;;;;;;;;;;;19.45;66.33;100472.28;7390208;19;1202;-49
2023/04/20 07:52:01;;;;;;;;;;;;;;;19.50;66.60;100485.25;7391285;19;1487;-49
2023/04/20 07:54:31;;;;;;;;;;;;;;;19.48;66.78;100488.09;7391049;19;1269;-50
2023/04/20 07:57:00;;;;;;;;;;;;;;;19.44;66.85;100476.81;7390875;19;1862;-50
2023/04/20 07:59:28;;;;;;;;;;;;;;;19.44;67.03;100487.53;7391317;19;1566;-50
2023/04/20 08:02:03;;;;;;;;;;;;;;;19.41;67.10;100478.94;7390785;19;1575;-50
2023/04/20 08:04:31;;;;;;;;;;;;;;;19.43;67.08;100483.16;7396228;19;1554;-50
2023/04/20 08:06:59;;;;;;;;;;;;;;;19.47;67.03;100486.41;7397971;19;1440;-50
2023/04/20 08:09:28;;;;;;;;;;;;;;;19.45;67.04;100488.38;7397557;19;1155;-50
2023/04/20 08:11:56;;;;;;;;;;;;;;;19.43;67.03;100480.47;7397399;19;1475;-50
2023/04/20 08:14:25;;;;;;;;;;;;;;;19.45;67.04;100475.81;7396851;19;1646;-50
2023/04/20 08:16:53;;;;;;;;;;;;;;;19.42;67.25;100484.16;7396448;19;1861;-49
2023/04/20 08:19:25;;;;;;;;;;;;;;;19.44;67.08;100492.06;7397709;19;1257;-50
2023/04/20 08:21:54;;;;;;;;;;;;;;;19.38;67.28;100471.19;7396703;19;2421;-48
2023/04/20 08:24:22;;;;;;;;;;;;;;;19.40;67.24;100478.09;7397015;19;1186;-48
2023/04/20 08:26:50;;;;;;;;;;;;;;;19.35;67.26;100479.50;7394915;19;1210;-48
2023/04/20 08:29:18;;;;;;;;;;;;;;;19.32;67.57;100480.66;7396992;19;1586;-48
2023/04/20 08:31:47;;;;;;;;;;;;;;;19.32;67.63;100466.38;7396667;19;1586;-49
2023/04/20 08:34:15;;;;;;;;;;;;;;;19.30;67.78;100473.72;7398297;19;1032;-48
2023/04/20 08:36:49;;;;;;;;;;;;;;;19.32;67.63;100480.66;7395356;19;1841;-48
2023/04/20 08:39:20;;;;;;;;;;;;;;;19.28;67.61;100476.59;7396560;19;1500;-48
2023/04/20 08:41:52;;;;;;;;;;;;;;;19.26;67.54;100479.41;7397658;19;1042;-49
2023/04/20 08:44:20;;;;;;;;;;;;;;;19.27;67.80;100485.59;7396358;19;1773;-50
2023/04/20 08:46:49;;;;;;;;;;;;;;;19.24;67.71;100486.75;7395633;19;1475;-49
2023/04/20 08:49:18;;;;;;;;;;;;;;;19.19;67.73;100480.94;7395066;19;1646;-51
2023/04/20 08:51:50;;;;;;;;;;;;;;;19.30;67.53;100489.81;7395365;19;1199;-50
2023/04/20 08:54:18;;;;;;;;;;;;;;;19.27;67.60;100481.06;7396822;19;1025;-50
2023/04/20 08:56:47;;;;;;;;;;;;;;;19.26;67.68;100470.50;7395451;19;1923;-51
2023/04/20 08:59:16;;;;;;;;;;;;;;;19.33;67.46;100485.00;7396346;19;1578;-49
2023/04/20 09:01:45;;;;;;;;;;;;;;;19.27;67.51;100456.09;7395935;19;1586;-49
2023/04/20 09:04:20;;;;;;;;;;;;;;;19.27;67.75;100477.56;7396223;19;1194;-50
2023/04/20 09:06:51;;;;;;;;;;;;;;;19.32;67.70;100480.66;7396062;19;1146;-49
2023/04/20 09:09:20;;;;;;;;;;;;;;;19.29;67.54;100467.53;7396401;19;1471;-51
2023/04/20 09:11:49;;;;;;;;;;;;;;;19.34;67.60;100473.31;7396201;19;1550;-50
2023/04/20 09:14:19;;;;;;;;;;;;;;;19.35;67.46;100480.34;7395675;19;1249;-49
2023/04/20 09:16:51;;;;;;;;;;;;;;;19.31;67.64;100483.47;7395589;19;1843;-51
2023/04/20 09:19:23;;;;;;;;;;;;;;;19.32;67.51;100477.97;7397531;19;1284;-50
2023/04/20 09:21:55;;;;;;;;;;;;;;;19.20;67.89;100473.75;7396706;19;1112;-51
2023/04/20 09:24:24;;;;;;;;;;;;;;;19.24;67.99;100491.25;7396498;19;1491;-50
2023/04/20 09:26:52;;;;;;;;;;;;;;;19.16;68.33;100466.97;7395171;19;1491;-49
2023/04/20 09:29:22;;;;;;;;;;;;;;;19.21;68.18;100487.00;7396824;19;1559;-51
2023/04/20 09:31:50;;;;;;;;;;;;;;;19.03;68.58;100473.50;7396273;19;1535;-51
2023/04/20 09:34:19;;;;;;;;;;;;;;;19.11;68.47;100469.25;7396296;19;1526;-50
2023/04/20 09:36:49;;;;;;;;;;;;;;;19.16;68.29;100473.22;7395524;19;1842;-50
2023/04/20 09:39:21;;;;;;;;;;;;;;;19.14;68.13;100471.63;7395648;19;1479;-51
2023/04/20 09:41:50;;;;;;;;;;;;;;;19.17;68.21;100471.38;7395830;19;1640;-51
2023/04/20 09:44:19;;;;;;;;;;;;;;;19.22;67.87;100479.84;7395715;19;1538;-51
2023/04/20 09:46:47;;;;;;;;;;;;;;;19.21;68.27;100484.31;7396383;19;1538;-50
2023/04/20 09:49:16;;;;;;;;;;;;;;;19.13;68.31;100475.31;7395988;19;1530;-50
2023/04/20 09:51:46;;;;;;;;;;;;;;;19.14;68.52;100471.63;7396771;19;1045;-50
2023/04/20 09:54:15;;;;;;;;;;;;;;;19.13;68.33;100473.47;7395554;19;1938;-51
2023/04/20 09:56:47;;;;;;;;;;;;;;;19.04;68.54;100474.38;7395308;19;1854;-51
2023/04/20 09:59:15;;;;;;;;;;;;;;;19.08;68.42;100470.41;7401553;19;1178;-51
2023/04/20 10:01:44;;;;;;;;;;;;;;;19.12;68.56;100495.94;7403048;19;1468;-50
2023/04/20 10:04:13;;;;;;;;;;;;;;;19.13;68.32;100467.28;7402884;19;1198;-50
2023/04/20 10:06:42;;;;;;;;;;;;;;;19.14;68.59;100463.59;7403641;19;1483;-50
2023/04/20 10:09:10;;;;;;;;;;;;;;;19.12;68.39;100470.94;7403257;19;1550;-50
2023/04/20 10:11:40;;;;;;;;;;;;;;;18.98;68.83;100456.16;7402629;19;1521;-51
2023/04/20 10:14:19;;;;;;;;;;;;;;;19.05;68.67;100484.06;7402957;19;1143;-50
2023/04/20 10:16:48;;;;;;;;;;;;;;;18.91;69.04;100466.59;7402399;19;1838;-50
2023/04/20 10:19:16;;;;;;;;;;;;;;;18.82;69.45;100459.41;7402141;19;1547;-50
2023/04/20 10:21:48;;;;;;;;;;;;;;;18.96;69.04;100471.53;7401755;19;1272;-50
2023/04/20 10:24:17;;;;;;;;;;;;;;;18.90;68.92;100459.56;7402506;19;1270;-50
2023/04/20 10:26:47;;;;;;;;;;;;;;;18.82;69.45;100454.03;7400952;19;1555;-51
2023/04/20 10:29:27;;;;;;;;;;;;;;;18.82;69.47;100457.59;7401959;19;1543;-50
2023/04/20 10:31:56;;;;;;;;;;;;;;;18.77;69.72;100456.28;7402204;19;1163;-50
2023/04/20 10:34:34;;;;;;;;;;;;;;;18.93;69.22;100456.59;7402293;19;1676;-52
2023/04/20 10:37:11;;;;;;;;;;;;;;;18.80;69.64;100456.03;7401207;19;1859;-51
2023/04/20 10:39:45;;;;;;;;;;;;;;;18.81;69.66;100441.66;7398866;19;2382;-50
2023/04/20 10:42:14;;;;;;;;;;;;;;;18.73;69.80;100452.22;7401434;19;1261;-51
2023/04/20 10:44:51;;;;;;;;;;;;;;;18.76;69.69;100455.44;7401462;19;1653;-49
2023/04/20 10:47:28;;;;;;;;;;;;;;;18.86;69.17;100413.44;7401103;19;1265;-52
2023/04/20 10:49:56;;;;;;;;;;;;;;;18.85;69.38;100443.06;7400982;19;1609;-50
2023/04/20 10:52:33;;;;;;;;;;;;;;;18.94;69.23;100444.91;7400379;19;1163;-51
2023/04/20 10:55:02;;;;;;;;;;;;;;;18.92;69.19;100444.19;7400732;19;1252;-49
2023/04/20 10:57:30;;;;;;;;;;;;;;;18.96;69.07;100445.59;7399808;19;1848;-51
2023/04/20 11:00:01;;;;;;;;;;;;;;;18.99;69.03;100439.94;7401128;19;1641;-50
2023/04/20 11:02:29;;;;;;;;;;;;;;;19.04;68.83;100432.31;7401243;19;1163;-50
2023/04/20 11:05:00;;;;;;;;;;;;;;;19.00;69.04;100446.13;7398970;19;1265;-50
2023/04/20 11:07:28;;;;;;;;;;;;;;;18.87;69.34;100431.22;7400820;19;1471;-50
2023/04/20 11:09:57;;;;;;;;;;;;;;;18.85;69.45;100438.53;7399014;19;1032;-51
2023/04/20 11:12:25;;;;;;;;;;;;;;;18.90;69.28;100430.09;7399973;19;1408;-51
2023/04/20 11:14:54;;;;;;;;;;;;;;;19.06;68.91;100427.66;7400674;19;1564;-51
2023/04/20 11:17:32;;;;;;;;;;;;;;;19.10;68.88;100440.75;7399939;19;1850;-50
2023/04/20 11:20:09;;;;;;;;;;;;;;;18.99;68.98;100415.81;7399755;19;1275;-50
2023/04/20 11:22:38;;;;;;;;;;;;;;;19.05;69.05;100420.59;7400628;19;1495;-50
2023/04/20 11:25:07;;;;;;;;;;;;;;;19.06;69.03;100434.88;7400397;19;1508;-51
2023/04/20 11:27:35;;;;;;;;;;;;;;;18.95;69.18;100414.41;7398230;19;1558;-49
2023/04/20 11:30:04;;;;;;;;;;;;;;;18.95;69.38;100421.63;7399254;19;1495;-51
2023/04/20 11:32:36;;;;;;;;;;;;;;;18.89;69.49;100428.38;7401058;19;1191;-51
2023/04/20 11:35:06;;;;;;;;;;;;;;;18.98;69.15;100413.28;7399752;19;1593;-50
2023/04/20 11:37:35;;;;;;;;;;;;;;;19.00;69.23;100400.56;7399028;19;1837;-50
2023/04/20 11:40:07;;;;;;;;;;;;;;;18.92;69.28;100395.09;7399020;19;1621;-50
2023/04/20 11:42:35;;;;;;;;;;;;;;;18.91;69.38;100415.69;7398640;19;1555;-50
2023/04/20 11:45:03;;;;;;;;;;;;;;;18.87;69.71;100406.25;7399611;19;1277;-50
2023/04/20 11:47:31;;;;;;;;;;;;;;;18.85;69.64;100400.19;7399503;19;1637;-50
2023/04/20 11:50:03;;;;;;;;;;;;;;;18.87;69.52;100393.69;7398844;19;1534;-51
2023/04/20 11:52:31;;;;;;;;;;;;;;;18.93;69.33;100376.19;7398967;19;1605;-51
2023/04/20 11:54:59;;;;;;;;;;;;;;;18.90;69.44;100419.38;7398795;19;1495;-51
2023/04/20 11:57:28;;;;;;;;;;;;;;;18.93;69.48;100391.44;7398471;19;1849;-50
2023/04/20 11:59:56;;;;;;;;;;;;;;;19.04;69.19;100391.28;7398992;19;1590;-50
2023/04/20 12:02:24;;;;;;;;;;;;;;;19.01;69.19;100383.53;7399566;19;1255;-50
2023/04/20 12:04:52;;;;;;;;;;;;;;;19.04;68.97;100381.41;7399057;19;1317;-50
2023/04/20 12:07:23;;;;;;;;;;;;;;;18.94;69.21;100371.69;7398414;19;1483;-51
2023/04/20 12:09:51;;;;;;;;;;;;;;;19.05;69.00;100375.03;7397741;19;1547;-50
2023/04/20 12:12:21;;;;;;;;;;;;;;;19.01;69.03;100384.34;7398923;19;1531;-51
2023/04/20 12:14:49;;;;;;;;;;;;;;;19.02;69.20;100386.06;7398181;19;1183;-50
2023/04/20 12:17:17;;;;;;;;;;;;;;;19.08;68.89;100358.69;7397745;19;1846;-50
2023/04/20 12:19:46;;;;;;;;;;;;;;;19.04;69.01;100362.66;7398627;19;1494;-50
2023/04/20 12:22:14;;;;;;;;;;;;;;;19.10;68.88;100365.72;7397191;19;1170;-50
2023/04/20 12:24:45;;;;;;;;;;;;;;;19.03;68.96;100366.31;7398755;19;1531;-50
2023/04/20 12:27:14;;;;;;;;;;;;;;;19.16;68.87;100355.28;7398024;19;1246;-50
2023/04/20 12:29:42;;;;;;;;;;;;;;;19.07;68.93;100359.66;7397817;19;1546;-50
2023/04/20 12:32:10;;;;;;;;;;;;;;;19.06;68.92;100359.81;7399198;19;1236;-50
2023/04/20 12:34:38;;;;;;;;;;;;;;;19.05;69.14;100358.97;7397679;19;1551;-50
2023/04/20 12:37:06;;;;;;;;;;;;;;;19.11;68.84;100341.47;7397596;19;1848;-50
2023/04/20 12:39:35;;;;;;;;;;;;;;;19.02;69.00;100345.88;7397489;19;1659;-51
2023/04/20 12:42:06;;;;;;;;;;;;;;;19.01;69.40;100351.38;7397708;19;1581;-50
2023/04/20 12:44:34;;;;;;;;;;;;;;;19.04;69.13;100357.28;7397466;19;1618;-50
2023/04/20 12:47:02;;;;;;;;;;;;;;;18.99;69.41;100354.19;7397447;19;1499;-50
2023/04/20 12:49:30;;;;;;;;;;;;;;;19.12;68.96;100353.88;7396485;19;2037;-50
2023/04/20 12:51:59;;;;;;;;;;;;;;;18.99;69.42;100374.78;7397399;19;1218;-51
2023/04/20 12:54:27;;;;;;;;;;;;;;;18.98;69.17;100360.56;7398401;19;1033;-50
2023/04/20 12:56:55;;;;;;;;;;;;;;;18.98;69.49;100368.59;7398304;19;1037;-50